sensor_id;sensor_type;location;lat;lon;timestamp;P1;durP1;ratioP1;P2;durP2;ratioP2
47167;SDS011;32931;47.778;17.806;2022-09-09T00:01:06;1.13;;;0.57;;
47167;SDS011;32931;47.778;17.806;2022-09-09T00:03:34;2.30;;;0.40;;
47167;SDS011;32931;47.778;17.806;2022-09-09T00:06:23;6.20;;;0.47;;
47167;SDS011;32931;47.778;17.806;2022-09-09T00:11:29;5.80;;;0.60;;
47167;SDS011;32931;47.778;17.806;2022-09-09T00:14:12;1.88;;;0.55;;
47167;SDS011;32931;47.778;17.806;2022-09-09T00:16:46;2.92;;;0.50;;
47167;SDS011;32931;47.778;17.806;2022-09-09T00:19:22;3.10;;;0.60;;
47167;SDS011;32931;47.778;17.806;2022-09-09T00:22:18;1.65;;;0.50;;
47167;SDS011;32931;47.778;17.806;2022-09-09T00:24:47;2.17;;;0.60;;
47167;SDS011;32931;47.778;17.806;2022-09-09T00:32:49;1.40;;;0.55;;
47167;SDS011;32931;47.778;17.806;2022-09-09T00:35:31;2.25;;;0.57;;
47167;SDS011;32931;47.778;17.806;2022-09-09T00:38:10;1.33;;;0.40;;
47167;SDS011;32931;47.778;17.806;2022-09-09T00:43:36;1.85;;;0.50;;
47167;SDS011;32931;47.778;17.806;2022-09-09T00:46:14;3.42;;;0.43;;
47167;SDS011;32931;47.778;17.806;2022-09-09T00:54:32;1.85;;;0.50;;
47167;SDS011;32931;47.778;17.806;2022-09-09T00:57:22;2.08;;;0.60;;
47167;SDS011;32931;47.778;17.806;2022-09-09T00:59:57;0.80;;;0.60;;
47167;SDS011;32931;47.778;17.806;2022-09-09T01:08:06;2.13;;;0.80;;
47167;SDS011;32931;47.778;17.806;2022-09-09T01:10:56;2.55;;;0.88;;
47167;SDS011;32931;47.778;17.806;2022-09-09T01:13:27;2.60;;;0.85;;
47167;SDS011;32931;47.778;17.806;2022-09-09T01:15:56;2.22;;;0.70;;
47167;SDS011;32931;47.778;17.806;2022-09-09T01:18:49;0.82;;;0.50;;
47167;SDS011;32931;47.778;17.806;2022-09-09T01:29:09;4.13;;;0.60;;
47167;SDS011;32931;47.778;17.806;2022-09-09T01:31:39;1.45;;;0.65;;
47167;SDS011;32931;47.778;17.806;2022-09-09T01:34:10;1.70;;;0.50;;
47167;SDS011;32931;47.778;17.806;2022-09-09T01:36:39;0.75;;;0.55;;
47167;SDS011;32931;47.778;17.806;2022-09-09T01:39:10;5.67;;;0.90;;
47167;SDS011;32931;47.778;17.806;2022-09-09T01:41:37;2.20;;;0.70;;
47167;SDS011;32931;47.778;17.806;2022-09-09T01:44:03;0.98;;;0.80;;
47167;SDS011;32931;47.778;17.806;2022-09-09T01:46:30;0.95;;;0.68;;
47167;SDS011;32931;47.778;17.806;2022-09-09T01:48:56;1.50;;;0.60;;
47167;SDS011;32931;47.778;17.806;2022-09-09T01:51:24;2.80;;;0.80;;
47167;SDS011;32931;47.778;17.806;2022-09-09T01:53:50;2.15;;;0.70;;
47167;SDS011;32931;47.778;17.806;2022-09-09T02:07:31;1.58;;;0.70;;
47167;SDS011;32931;47.778;17.806;2022-09-09T02:12:42;1.45;;;0.75;;
47167;SDS011;32931;47.778;17.806;2022-09-09T02:15:16;2.70;;;0.90;;
47167;SDS011;32931;47.778;17.806;2022-09-09T02:17:55;1.73;;;0.70;;
47167;SDS011;32931;47.778;17.806;2022-09-09T02:20:24;3.03;;;1.23;;
47167;SDS011;32931;47.778;17.806;2022-09-09T02:22:52;2.78;;;0.73;;
47167;SDS011;32931;47.778;17.806;2022-09-09T02:25:22;4.72;;;1.02;;
47167;SDS011;32931;47.778;17.806;2022-09-09T02:27:51;2.75;;;1.10;;
47167;SDS011;32931;47.778;17.806;2022-09-09T02:30:17;3.15;;;0.90;;
47167;SDS011;32931;47.778;17.806;2022-09-09T02:32:45;1.45;;;0.90;;
47167;SDS011;32931;47.778;17.806;2022-09-09T02:35:15;2.38;;;1.30;;
47167;SDS011;32931;47.778;17.806;2022-09-09T02:37:45;2.22;;;1.20;;
47167;SDS011;32931;47.778;17.806;2022-09-09T02:40:12;3.05;;;1.77;;
47167;SDS011;32931;47.778;17.806;2022-09-09T02:42:43;6.63;;;1.48;;
47167;SDS011;32931;47.778;17.806;2022-09-09T02:45:12;3.17;;;1.35;;
47167;SDS011;32931;47.778;17.806;2022-09-09T02:47:47;4.75;;;1.80;;
47167;SDS011;32931;47.778;17.806;2022-09-09T02:50:29;3.55;;;1.90;;
47167;SDS011;32931;47.778;17.806;2022-09-09T02:55:41;3.08;;;1.60;;
47167;SDS011;32931;47.778;17.806;2022-09-09T02:58:17;2.80;;;1.45;;
47167;SDS011;32931;47.778;17.806;2022-09-09T03:00:45;3.42;;;1.42;;
47167;SDS011;32931;47.778;17.806;2022-09-09T03:03:13;6.35;;;1.60;;
47167;SDS011;32931;47.778;17.806;2022-09-09T03:05:42;2.20;;;1.38;;
47167;SDS011;32931;47.778;17.806;2022-09-09T03:08:09;6.57;;;1.90;;
47167;SDS011;32931;47.778;17.806;2022-09-09T03:10:36;2.15;;;1.20;;
47167;SDS011;32931;47.778;17.806;2022-09-09T03:13:03;2.67;;;1.30;;
47167;SDS011;32931;47.778;17.806;2022-09-09T03:15:31;2.40;;;1.50;;
47167;SDS011;32931;47.778;17.806;2022-09-09T03:17:58;2.72;;;1.58;;
47167;SDS011;32931;47.778;17.806;2022-09-09T03:20:25;3.25;;;1.48;;
47167;SDS011;32931;47.778;17.806;2022-09-09T03:22:53;3.42;;;1.50;;
47167;SDS011;32931;47.778;17.806;2022-09-09T03:25:19;2.78;;;1.40;;
47167;SDS011;32931;47.778;17.806;2022-09-09T03:27:49;2.92;;;1.50;;
47167;SDS011;32931;47.778;17.806;2022-09-09T03:30:18;4.82;;;1.63;;
47167;SDS011;32931;47.778;17.806;2022-09-09T03:32:44;2.17;;;1.50;;
47167;SDS011;32931;47.778;17.806;2022-09-09T03:35:10;2.30;;;1.50;;
47167;SDS011;32931;47.778;17.806;2022-09-09T03:37:37;4.22;;;1.60;;
47167;SDS011;32931;47.778;17.806;2022-09-09T03:40:04;3.42;;;1.50;;
47167;SDS011;32931;47.778;17.806;2022-09-09T03:42:31;4.28;;;1.48;;
47167;SDS011;32931;47.778;17.806;2022-09-09T03:44:58;2.10;;;1.23;;
47167;SDS011;32931;47.778;17.806;2022-09-09T03:47:24;3.05;;;1.70;;
47167;SDS011;32931;47.778;17.806;2022-09-09T03:49:51;2.47;;;1.48;;
47167;SDS011;32931;47.778;17.806;2022-09-09T03:52:17;2.30;;;1.50;;
47167;SDS011;32931;47.778;17.806;2022-09-09T03:54:44;5.68;;;1.50;;
47167;SDS011;32931;47.778;17.806;2022-09-09T03:57:10;4.68;;;1.38;;
47167;SDS011;32931;47.778;17.806;2022-09-09T03:59:36;1.70;;;1.30;;
47167;SDS011;32931;47.778;17.806;2022-09-09T04:02:03;6.93;;;1.40;;
47167;SDS011;32931;47.778;17.806;2022-09-09T04:04:29;2.67;;;1.55;;
47167;SDS011;32931;47.778;17.806;2022-09-09T04:06:55;5.18;;;1.73;;
47167;SDS011;32931;47.778;17.806;2022-09-09T04:09:22;1.95;;;1.50;;
47167;SDS011;32931;47.778;17.806;2022-09-09T04:11:48;2.97;;;1.40;;
47167;SDS011;32931;47.778;17.806;2022-09-09T04:14:15;2.30;;;1.60;;
47167;SDS011;32931;47.778;17.806;2022-09-09T04:16:41;6.68;;;1.70;;
47167;SDS011;32931;47.778;17.806;2022-09-09T04:19:10;3.08;;;1.70;;
47167;SDS011;32931;47.778;17.806;2022-09-09T04:21:41;5.55;;;1.70;;
47167;SDS011;32931;47.778;17.806;2022-09-09T04:24:08;10.57;;;1.90;;
47167;SDS011;32931;47.778;17.806;2022-09-09T04:26:34;4.45;;;1.85;;
47167;SDS011;32931;47.778;17.806;2022-09-09T04:29:04;8.57;;;1.80;;
47167;SDS011;32931;47.778;17.806;2022-09-09T04:31:33;3.42;;;1.52;;
47167;SDS011;32931;47.778;17.806;2022-09-09T04:33:59;6.53;;;1.50;;
47167;SDS011;32931;47.778;17.806;2022-09-09T04:36:31;11.35;;;1.67;;
47167;SDS011;32931;47.778;17.806;2022-09-09T04:38:58;2.78;;;1.67;;
47167;SDS011;32931;47.778;17.806;2022-09-09T04:41:24;6.45;;;1.52;;
47167;SDS011;32931;47.778;17.806;2022-09-09T04:43:50;8.25;;;1.40;;
47167;SDS011;32931;47.778;17.806;2022-09-09T04:46:19;3.28;;;1.60;;
47167;SDS011;32931;47.778;17.806;2022-09-09T04:48:46;5.05;;;1.50;;
47167;SDS011;32931;47.778;17.806;2022-09-09T04:51:14;6.07;;;1.50;;
47167;SDS011;32931;47.778;17.806;2022-09-09T04:53:40;3.90;;;1.50;;
47167;SDS011;32931;47.778;17.806;2022-09-09T04:56:08;5.05;;;1.60;;
47167;SDS011;32931;47.778;17.806;2022-09-09T04:58:36;4.80;;;1.50;;
47167;SDS011;32931;47.778;17.806;2022-09-09T05:01:06;3.03;;;1.50;;
47167;SDS011;32931;47.778;17.806;2022-09-09T05:03:34;3.38;;;1.20;;
47167;SDS011;32931;47.778;17.806;2022-09-09T05:06:04;5.80;;;1.40;;
47167;SDS011;32931;47.778;17.806;2022-09-09T05:08:38;5.50;;;1.88;;
47167;SDS011;32931;47.778;17.806;2022-09-09T05:11:15;4.22;;;1.55;;
47167;SDS011;32931;47.778;17.806;2022-09-09T05:13:43;2.40;;;1.75;;
47167;SDS011;32931;47.778;17.806;2022-09-09T05:16:09;3.53;;;1.92;;
47167;SDS011;32931;47.778;17.806;2022-09-09T05:18:37;6.97;;;2.30;;
47167;SDS011;32931;47.778;17.806;2022-09-09T05:21:04;8.88;;;2.03;;
47167;SDS011;32931;47.778;17.806;2022-09-09T05:23:32;7.55;;;1.70;;
47167;SDS011;32931;47.778;17.806;2022-09-09T05:25:59;4.97;;;2.00;;
47167;SDS011;32931;47.778;17.806;2022-09-09T05:28:26;13.48;;;1.80;;
47167;SDS011;32931;47.778;17.806;2022-09-09T05:30:57;5.95;;;1.83;;
47167;SDS011;32931;47.778;17.806;2022-09-09T05:33:24;12.20;;;2.05;;
47167;SDS011;32931;47.778;17.806;2022-09-09T05:35:55;5.78;;;1.70;;
47167;SDS011;32931;47.778;17.806;2022-09-09T05:38:25;5.47;;;1.60;;
47167;SDS011;32931;47.778;17.806;2022-09-09T05:40:52;5.68;;;1.60;;
47167;SDS011;32931;47.778;17.806;2022-09-09T05:43:19;9.00;;;1.50;;
47167;SDS011;32931;47.778;17.806;2022-09-09T05:45:46;7.63;;;1.50;;
47167;SDS011;32931;47.778;17.806;2022-09-09T05:48:14;2.55;;;1.50;;
47167;SDS011;32931;47.778;17.806;2022-09-09T05:50:43;6.82;;;1.83;;
47167;SDS011;32931;47.778;17.806;2022-09-09T05:53:17;6.18;;;2.08;;
47167;SDS011;32931;47.778;17.806;2022-09-09T05:55:44;3.13;;;1.70;;
47167;SDS011;32931;47.778;17.806;2022-09-09T05:58:10;2.53;;;1.70;;
47167;SDS011;32931;47.778;17.806;2022-09-09T06:00:37;5.68;;;1.48;;
47167;SDS011;32931;47.778;17.806;2022-09-09T06:03:03;6.40;;;1.63;;
47167;SDS011;32931;47.778;17.806;2022-09-09T06:05:29;4.80;;;1.83;;
47167;SDS011;32931;47.778;17.806;2022-09-09T06:07:56;4.30;;;1.58;;
47167;SDS011;32931;47.778;17.806;2022-09-09T06:10:22;3.13;;;1.63;;
47167;SDS011;32931;47.778;17.806;2022-09-09T06:12:48;5.03;;;1.90;;
47167;SDS011;32931;47.778;17.806;2022-09-09T06:15:17;5.60;;;1.50;;
47167;SDS011;32931;47.778;17.806;2022-09-09T06:17:44;2.08;;;1.40;;
47167;SDS011;32931;47.778;17.806;2022-09-09T06:20:11;3.15;;;1.50;;
47167;SDS011;32931;47.778;17.806;2022-09-09T06:22:39;4.72;;;1.70;;
47167;SDS011;32931;47.778;17.806;2022-09-09T06:25:07;3.28;;;1.55;;
47167;SDS011;32931;47.778;17.806;2022-09-09T06:27:35;5.80;;;1.77;;
47167;SDS011;32931;47.778;17.806;2022-09-09T06:30:01;4.00;;;1.73;;
47167;SDS011;32931;47.778;17.806;2022-09-09T06:32:28;4.60;;;1.75;;
47167;SDS011;32931;47.778;17.806;2022-09-09T06:34:54;4.85;;;1.50;;
47167;SDS011;32931;47.778;17.806;2022-09-09T06:37:20;4.57;;;1.83;;
47167;SDS011;32931;47.778;17.806;2022-09-09T06:39:49;3.40;;;1.80;;
47167;SDS011;32931;47.778;17.806;2022-09-09T06:42:16;6.88;;;1.80;;
47167;SDS011;32931;47.778;17.806;2022-09-09T06:44:42;3.53;;;1.55;;
47167;SDS011;32931;47.778;17.806;2022-09-09T06:47:08;4.57;;;2.08;;
47167;SDS011;32931;47.778;17.806;2022-09-09T06:49:34;8.20;;;1.40;;
47167;SDS011;32931;47.778;17.806;2022-09-09T06:52:01;5.35;;;1.63;;
47167;SDS011;32931;47.778;17.806;2022-09-09T06:54:27;2.45;;;1.40;;
47167;SDS011;32931;47.778;17.806;2022-09-09T06:56:54;5.07;;;1.48;;
47167;SDS011;32931;47.778;17.806;2022-09-09T06:59:20;9.68;;;1.48;;
47167;SDS011;32931;47.778;17.806;2022-09-09T07:01:46;3.33;;;1.50;;
47167;SDS011;32931;47.778;17.806;2022-09-09T07:04:13;8.48;;;1.50;;
47167;SDS011;32931;47.778;17.806;2022-09-09T07:06:40;4.40;;;1.55;;
47167;SDS011;32931;47.778;17.806;2022-09-09T07:09:09;5.55;;;1.50;;
47167;SDS011;32931;47.778;17.806;2022-09-09T07:11:38;5.88;;;1.73;;
47167;SDS011;32931;47.778;17.806;2022-09-09T07:14:09;3.50;;;1.38;;
47167;SDS011;32931;47.778;17.806;2022-09-09T07:16:42;3.10;;;1.20;;
47167;SDS011;32931;47.778;17.806;2022-09-09T07:19:10;3.67;;;1.42;;
47167;SDS011;32931;47.778;17.806;2022-09-09T07:21:37;3.63;;;1.40;;
47167;SDS011;32931;47.778;17.806;2022-09-09T07:24:05;3.22;;;1.33;;
47167;SDS011;32931;47.778;17.806;2022-09-09T07:26:33;5.35;;;1.58;;
47167;SDS011;32931;47.778;17.806;2022-09-09T07:28:59;2.90;;;1.13;;
47167;SDS011;32931;47.778;17.806;2022-09-09T07:31:27;2.28;;;1.20;;
47167;SDS011;32931;47.778;17.806;2022-09-09T07:33:58;3.08;;;1.10;;
47167;SDS011;32931;47.778;17.806;2022-09-09T07:36:26;5.13;;;1.58;;
47167;SDS011;32931;47.778;17.806;2022-09-09T07:38:55;2.28;;;1.10;;
47167;SDS011;32931;47.778;17.806;2022-09-09T07:41:33;3.55;;;0.98;;
47167;SDS011;32931;47.778;17.806;2022-09-09T07:44:04;2.50;;;0.90;;
47167;SDS011;32931;47.778;17.806;2022-09-09T07:49:04;2.28;;;0.85;;
47167;SDS011;32931;47.778;17.806;2022-09-09T07:51:32;4.70;;;0.90;;
47167;SDS011;32931;47.778;17.806;2022-09-09T07:54:01;3.97;;;0.82;;
47167;SDS011;32931;47.778;17.806;2022-09-09T07:56:32;3.03;;;0.85;;
47167;SDS011;32931;47.778;17.806;2022-09-09T07:58:59;1.20;;;0.70;;
47167;SDS011;32931;47.778;17.806;2022-09-09T08:01:45;22.13;;;1.30;;
47167;SDS011;32931;47.778;17.806;2022-09-09T08:04:14;1.98;;;0.80;;
47167;SDS011;32931;47.778;17.806;2022-09-09T08:06:44;2.67;;;0.80;;
47167;SDS011;32931;47.778;17.806;2022-09-09T08:09:12;4.78;;;1.00;;
47167;SDS011;32931;47.778;17.806;2022-09-09T08:11:39;2.92;;;0.93;;
47167;SDS011;32931;47.778;17.806;2022-09-09T08:14:06;2.05;;;0.77;;
47167;SDS011;32931;47.778;17.806;2022-09-09T08:16:35;2.38;;;0.70;;
47167;SDS011;32931;47.778;17.806;2022-09-09T08:19:03;1.70;;;0.63;;
47167;SDS011;32931;47.778;17.806;2022-09-09T08:21:31;1.40;;;0.70;;
47167;SDS011;32931;47.778;17.806;2022-09-09T08:23:59;3.80;;;0.80;;
47167;SDS011;32931;47.778;17.806;2022-09-09T08:26:27;1.92;;;0.90;;
47167;SDS011;32931;47.778;17.806;2022-09-09T08:28:56;7.20;;;1.00;;
47167;SDS011;32931;47.778;17.806;2022-09-09T08:31:24;6.38;;;0.80;;
47167;SDS011;32931;47.778;17.806;2022-09-09T08:33:51;3.33;;;0.60;;
47167;SDS011;32931;47.778;17.806;2022-09-09T08:36:18;2.53;;;0.75;;
47167;SDS011;32931;47.778;17.806;2022-09-09T08:38:47;2.08;;;0.70;;
47167;SDS011;32931;47.778;17.806;2022-09-09T08:52:48;1.10;;;0.52;;
47167;SDS011;32931;47.778;17.806;2022-09-09T08:57:54;3.65;;;0.70;;
47167;SDS011;32931;47.778;17.806;2022-09-09T09:00:23;0.50;;;0.50;;
47167;SDS011;32931;47.778;17.806;2022-09-09T09:05:54;2.95;;;0.77;;
47167;SDS011;32931;47.778;17.806;2022-09-09T09:08:43;4.13;;;0.60;;
47167;SDS011;32931;47.778;17.806;2022-09-09T09:11:21;5.60;;;0.60;;
47167;SDS011;32931;47.778;17.806;2022-09-09T09:13:54;1.13;;;0.40;;
47167;SDS011;32931;47.778;17.806;2022-09-09T09:16:35;5.97;;;0.50;;
47167;SDS011;32931;47.778;17.806;2022-09-09T09:19:11;4.20;;;0.57;;
47167;SDS011;32931;47.778;17.806;2022-09-09T09:21:43;2.38;;;0.50;;
47167;SDS011;32931;47.778;17.806;2022-09-09T09:24:16;1.27;;;0.52;;
47167;SDS011;32931;47.778;17.806;2022-09-09T09:26:53;3.15;;;0.50;;
47167;SDS011;32931;47.778;17.806;2022-09-09T09:29:20;3.95;;;0.70;;
47167;SDS011;32931;47.778;17.806;2022-09-09T09:31:51;3.63;;;0.73;;
47167;SDS011;32931;47.778;17.806;2022-09-09T09:34:22;2.08;;;0.60;;
47167;SDS011;32931;47.778;17.806;2022-09-09T09:36:54;1.75;;;0.60;;
47167;SDS011;32931;47.778;17.806;2022-09-09T09:41:50;3.28;;;0.70;;
47167;SDS011;32931;47.778;17.806;2022-09-09T09:44:30;1.38;;;0.55;;
47167;SDS011;32931;47.778;17.806;2022-09-09T09:49:53;1.70;;;0.60;;
47167;SDS011;32931;47.778;17.806;2022-09-09T09:52:21;1.75;;;0.68;;
47167;SDS011;32931;47.778;17.806;2022-09-09T09:54:49;6.00;;;0.70;;
47167;SDS011;32931;47.778;17.806;2022-09-09T09:57:17;2.22;;;0.60;;
47167;SDS011;32931;47.778;17.806;2022-09-09T09:59:47;1.92;;;0.57;;
47167;SDS011;32931;47.778;17.806;2022-09-09T10:02:18;0.88;;;0.32;;
47167;SDS011;32931;47.778;17.806;2022-09-09T10:04:48;1.63;;;0.47;;
47167;SDS011;32931;47.778;17.806;2022-09-09T10:07:26;1.85;;;0.50;;
47167;SDS011;32931;47.778;17.806;2022-09-09T10:09:53;3.33;;;0.52;;
47167;SDS011;32931;47.778;17.806;2022-09-09T10:14:55;3.28;;;0.50;;
47167;SDS011;32931;47.778;17.806;2022-09-09T10:18:10;1.23;;;0.63;;
47167;SDS011;32931;47.778;17.806;2022-09-09T10:38:11;1.27;;;0.47;;
47167;SDS011;32931;47.778;17.806;2022-09-09T10:46:06;1.95;;;0.40;;
47167;SDS011;32931;47.778;17.806;2022-09-09T10:48:54;51.03;;;1.33;;
47167;SDS011;32931;47.778;17.806;2022-09-09T10:51:49;1.33;;;0.30;;
47167;SDS011;32931;47.778;17.806;2022-09-09T10:54:32;1.42;;;0.30;;
47167;SDS011;32931;47.778;17.806;2022-09-09T10:57:29;1.10;;;0.40;;
47167;SDS011;32931;47.778;17.806;2022-09-09T11:00:06;4.35;;;0.47;;
47167;SDS011;32931;47.778;17.806;2022-09-09T11:02:40;3.30;;;0.60;;
47167;SDS011;32931;47.778;17.806;2022-09-09T11:05:14;1.88;;;0.38;;
47167;SDS011;32931;47.778;17.806;2022-09-09T11:07:49;2.78;;;0.60;;
47167;SDS011;32931;47.778;17.806;2022-09-09T11:13:23;3.08;;;0.60;;
47167;SDS011;32931;47.778;17.806;2022-09-09T11:16:15;2.95;;;0.60;;
47167;SDS011;32931;47.778;17.806;2022-09-09T11:19:03;0.82;;;0.40;;
47167;SDS011;32931;47.778;17.806;2022-09-09T11:21:37;2.25;;;0.57;;
47167;SDS011;32931;47.778;17.806;2022-09-09T11:26:54;1.65;;;0.50;;
47167;SDS011;32931;47.778;17.806;2022-09-09T11:35:38;1.67;;;0.70;;
47167;SDS011;32931;47.778;17.806;2022-09-09T11:38:28;2.15;;;0.68;;
47167;SDS011;32931;47.778;17.806;2022-09-09T11:41:13;2.25;;;0.43;;
47167;SDS011;32931;47.778;17.806;2022-09-09T11:43:45;2.17;;;0.63;;
47167;SDS011;32931;47.778;17.806;2022-09-09T11:46:18;2.20;;;0.50;;
47167;SDS011;32931;47.778;17.806;2022-09-09T11:49:00;3.67;;;0.52;;
47167;SDS011;32931;47.778;17.806;2022-09-09T11:51:29;1.85;;;0.43;;
47167;SDS011;32931;47.778;17.806;2022-09-09T11:53:58;2.45;;;0.60;;
47167;SDS011;32931;47.778;17.806;2022-09-09T11:58:57;1.52;;;0.52;;
47167;SDS011;32931;47.778;17.806;2022-09-09T12:06:44;5.72;;;0.47;;
47167;SDS011;32931;47.778;17.806;2022-09-09T12:11:45;1.10;;;0.40;;
47167;SDS011;32931;47.778;17.806;2022-09-09T12:14:34;3.03;;;0.70;;
47167;SDS011;32931;47.778;17.806;2022-09-09T12:17:10;5.25;;;0.60;;
47167;SDS011;32931;47.778;17.806;2022-09-09T12:19:45;10.75;;;0.73;;
47167;SDS011;32931;47.778;17.806;2022-09-09T12:28:02;2.80;;;0.57;;
47167;SDS011;32931;47.778;17.806;2022-09-09T12:30:37;5.50;;;0.70;;
47167;SDS011;32931;47.778;17.806;2022-09-09T12:33:21;1.05;;;0.40;;
47167;SDS011;32931;47.778;17.806;2022-09-09T12:35:57;3.10;;;0.60;;
47167;SDS011;32931;47.778;17.806;2022-09-09T12:38:32;3.55;;;0.47;;
47167;SDS011;32931;47.778;17.806;2022-09-09T12:41:02;3.55;;;0.50;;
47167;SDS011;32931;47.778;17.806;2022-09-09T12:43:28;4.22;;;0.90;;
47167;SDS011;32931;47.778;17.806;2022-09-09T12:46:00;2.58;;;0.50;;
47167;SDS011;32931;47.778;17.806;2022-09-09T12:48:47;7.20;;;0.75;;
47167;SDS011;32931;47.778;17.806;2022-09-09T12:51:21;2.85;;;0.40;;
47167;SDS011;32931;47.778;17.806;2022-09-09T12:53:55;1.48;;;0.40;;
47167;SDS011;32931;47.778;17.806;2022-09-09T12:56:23;3.30;;;0.50;;
47167;SDS011;32931;47.778;17.806;2022-09-09T12:58:55;1.50;;;0.40;;
47167;SDS011;32931;47.778;17.806;2022-09-09T13:01:27;3.90;;;0.60;;
47167;SDS011;32931;47.778;17.806;2022-09-09T13:03:55;3.50;;;0.50;;
47167;SDS011;32931;47.778;17.806;2022-09-09T13:06:26;4.05;;;0.50;;
47167;SDS011;32931;47.778;17.806;2022-09-09T13:08:57;3.83;;;0.50;;
47167;SDS011;32931;47.778;17.806;2022-09-09T13:14:05;2.75;;;0.50;;
47167;SDS011;32931;47.778;17.806;2022-09-09T13:16:33;5.80;;;0.60;;
47167;SDS011;32931;47.778;17.806;2022-09-09T13:19:02;4.53;;;0.50;;
47167;SDS011;32931;47.778;17.806;2022-09-09T13:21:40;1.27;;;0.35;;
47167;SDS011;32931;47.778;17.806;2022-09-09T13:24:30;3.00;;;0.55;;
47167;SDS011;32931;47.778;17.806;2022-09-09T13:26:58;4.45;;;0.77;;
47167;SDS011;32931;47.778;17.806;2022-09-09T13:29:30;3.65;;;0.70;;
47167;SDS011;32931;47.778;17.806;2022-09-09T13:32:15;3.42;;;0.50;;
47167;SDS011;32931;47.778;17.806;2022-09-09T13:34:52;1.48;;;0.50;;
47167;SDS011;32931;47.778;17.806;2022-09-09T13:37:28;3.35;;;0.52;;
47167;SDS011;32931;47.778;17.806;2022-09-09T13:40:00;3.85;;;0.60;;
47167;SDS011;32931;47.778;17.806;2022-09-09T13:42:29;4.97;;;0.75;;
47167;SDS011;32931;47.778;17.806;2022-09-09T13:44:57;8.25;;;0.95;;
47167;SDS011;32931;47.778;17.806;2022-09-09T13:47:36;5.18;;;0.63;;
47167;SDS011;32931;47.778;17.806;2022-09-09T13:52:51;1.52;;;0.50;;
47167;SDS011;32931;47.778;17.806;2022-09-09T13:55:21;3.33;;;0.50;;
47167;SDS011;32931;47.778;17.806;2022-09-09T13:57:52;1.90;;;0.47;;
47167;SDS011;32931;47.778;17.806;2022-09-09T14:00:23;3.10;;;0.40;;
47167;SDS011;32931;47.778;17.806;2022-09-09T14:02:50;5.38;;;0.60;;
47167;SDS011;32931;47.778;17.806;2022-09-09T14:05:17;3.13;;;0.57;;
47167;SDS011;32931;47.778;17.806;2022-09-09T14:07:44;4.72;;;0.52;;
47167;SDS011;32931;47.778;17.806;2022-09-09T14:10:11;5.50;;;0.88;;
47167;SDS011;32931;47.778;17.806;2022-09-09T14:12:38;4.18;;;0.68;;
47167;SDS011;32931;47.778;17.806;2022-09-09T14:15:04;5.40;;;0.75;;
47167;SDS011;32931;47.778;17.806;2022-09-09T14:17:32;2.70;;;0.60;;
47167;SDS011;32931;47.778;17.806;2022-09-09T14:20:00;6.45;;;0.50;;
47167;SDS011;32931;47.778;17.806;2022-09-09T14:25:00;7.72;;;0.50;;
47167;SDS011;32931;47.778;17.806;2022-09-09T14:27:28;2.38;;;0.60;;
47167;SDS011;32931;47.778;17.806;2022-09-09T14:29:55;7.07;;;0.52;;
47167;SDS011;32931;47.778;17.806;2022-09-09T14:32:23;3.45;;;0.73;;
47167;SDS011;32931;47.778;17.806;2022-09-09T14:34:49;4.50;;;0.80;;
47167;SDS011;32931;47.778;17.806;2022-09-09T14:37:16;8.07;;;0.60;;
47167;SDS011;32931;47.778;17.806;2022-09-09T14:39:43;1.92;;;0.50;;
47167;SDS011;32931;47.778;17.806;2022-09-09T14:42:12;2.00;;;0.60;;
47167;SDS011;32931;47.778;17.806;2022-09-09T14:44:39;4.10;;;0.60;;
47167;SDS011;32931;47.778;17.806;2022-09-09T14:47:06;5.45;;;0.55;;
47167;SDS011;32931;47.778;17.806;2022-09-09T14:49:34;6.20;;;0.60;;
47167;SDS011;32931;47.778;17.806;2022-09-09T14:52:01;4.20;;;0.45;;
47167;SDS011;32931;47.778;17.806;2022-09-09T14:54:27;1.35;;;0.43;;
47167;SDS011;32931;47.778;17.806;2022-09-09T14:56:54;3.03;;;0.60;;
47167;SDS011;32931;47.778;17.806;2022-09-09T14:59:20;7.15;;;0.77;;
47167;SDS011;32931;47.778;17.806;2022-09-09T15:01:47;10.60;;;0.57;;
47167;SDS011;32931;47.778;17.806;2022-09-09T15:04:14;11.30;;;0.82;;
47167;SDS011;32931;47.778;17.806;2022-09-09T15:06:42;9.38;;;0.70;;
47167;SDS011;32931;47.778;17.806;2022-09-09T15:09:12;3.97;;;0.32;;
47167;SDS011;32931;47.778;17.806;2022-09-09T15:11:38;2.83;;;0.55;;
47167;SDS011;32931;47.778;17.806;2022-09-09T15:14:05;4.10;;;0.70;;
47167;SDS011;32931;47.778;17.806;2022-09-09T15:16:33;6.10;;;0.68;;
47167;SDS011;32931;47.778;17.806;2022-09-09T15:19:00;2.67;;;0.47;;
47167;SDS011;32931;47.778;17.806;2022-09-09T15:21:28;5.97;;;0.50;;
47167;SDS011;32931;47.778;17.806;2022-09-09T15:23:56;7.18;;;0.60;;
47167;SDS011;32931;47.778;17.806;2022-09-09T15:26:23;6.82;;;0.63;;
47167;SDS011;32931;47.778;17.806;2022-09-09T15:28:50;6.57;;;0.75;;
47167;SDS011;32931;47.778;17.806;2022-09-09T15:33:49;5.43;;;1.30;;
47167;SDS011;32931;47.778;17.806;2022-09-09T15:36:21;3.30;;;0.68;;
47167;SDS011;32931;47.778;17.806;2022-09-09T15:38:49;10.13;;;0.90;;
47167;SDS011;32931;47.778;17.806;2022-09-09T15:41:16;5.47;;;0.80;;
47167;SDS011;32931;47.778;17.806;2022-09-09T15:43:44;6.25;;;0.70;;
47167;SDS011;32931;47.778;17.806;2022-09-09T15:46:34;4.68;;;0.57;;
47167;SDS011;32931;47.778;17.806;2022-09-09T15:49:12;4.97;;;0.60;;
47167;SDS011;32931;47.778;17.806;2022-09-09T15:51:47;2.42;;;0.52;;
47167;SDS011;32931;47.778;17.806;2022-09-09T15:54:24;6.07;;;0.75;;
47167;SDS011;32931;47.778;17.806;2022-09-09T15:56:52;5.00;;;0.50;;
47167;SDS011;32931;47.778;17.806;2022-09-09T15:59:22;3.00;;;0.55;;
47167;SDS011;32931;47.778;17.806;2022-09-09T16:01:49;23.23;;;1.00;;
47167;SDS011;32931;47.778;17.806;2022-09-09T16:04:17;5.13;;;0.63;;
47167;SDS011;32931;47.778;17.806;2022-09-09T16:06:50;2.47;;;0.65;;
47167;SDS011;32931;47.778;17.806;2022-09-09T16:09:21;11.68;;;0.75;;
47167;SDS011;32931;47.778;17.806;2022-09-09T16:11:47;29.65;;;2.00;;
47167;SDS011;32931;47.778;17.806;2022-09-09T16:14:14;25.45;;;1.50;;
47167;SDS011;32931;47.778;17.806;2022-09-09T16:16:44;4.85;;;0.57;;
47167;SDS011;32931;47.778;17.806;2022-09-09T16:19:11;10.60;;;0.73;;
47167;SDS011;32931;47.778;17.806;2022-09-09T16:21:39;5.05;;;0.70;;
47167;SDS011;32931;47.778;17.806;2022-09-09T16:24:08;4.10;;;0.70;;
47167;SDS011;32931;47.778;17.806;2022-09-09T16:26:36;6.53;;;0.70;;
47167;SDS011;32931;47.778;17.806;2022-09-09T16:29:06;7.43;;;0.82;;
47167;SDS011;32931;47.778;17.806;2022-09-09T16:31:34;3.28;;;0.70;;
47167;SDS011;32931;47.778;17.806;2022-09-09T16:34:00;12.65;;;1.17;;
47167;SDS011;32931;47.778;17.806;2022-09-09T16:36:29;4.15;;;0.60;;
47167;SDS011;32931;47.778;17.806;2022-09-09T16:39:00;5.75;;;0.60;;
47167;SDS011;32931;47.778;17.806;2022-09-09T16:41:29;3.92;;;0.82;;
47167;SDS011;32931;47.778;17.806;2022-09-09T16:43:59;4.95;;;0.88;;
47167;SDS011;32931;47.778;17.806;2022-09-09T16:46:28;4.87;;;0.90;;
47167;SDS011;32931;47.778;17.806;2022-09-09T16:48:56;3.45;;;0.70;;
47167;SDS011;32931;47.778;17.806;2022-09-09T16:51:30;8.43;;;0.70;;
47167;SDS011;32931;47.778;17.806;2022-09-09T16:53:59;6.57;;;0.75;;
47167;SDS011;32931;47.778;17.806;2022-09-09T16:56:27;8.65;;;0.85;;
47167;SDS011;32931;47.778;17.806;2022-09-09T16:58:56;6.13;;;0.90;;
47167;SDS011;32931;47.778;17.806;2022-09-09T17:01:24;3.25;;;0.80;;
47167;SDS011;32931;47.778;17.806;2022-09-09T17:03:56;8.10;;;0.50;;
47167;SDS011;32931;47.778;17.806;2022-09-09T17:06:24;8.48;;;1.50;;
47167;SDS011;32931;47.778;17.806;2022-09-09T17:08:55;14.13;;;1.83;;